createdAt,value
2019-04-04T00:02:17.068Z,100588.04
2019-04-04T00:04:52.346Z,100590.52
2019-04-04T00:07:24.425Z,100595.50
2019-04-04T00:09:56.950Z,100593.77
2019-04-04T00:12:29.329Z,100592.86
2019-04-04T00:15:02.231Z,100602.52
2019-04-04T00:17:35.111Z,100611.13
2019-04-04T00:20:08.224Z,100614.41
2019-04-04T00:22:40.733Z,100617.44
2019-04-04T00:25:13.152Z,100622.36
2019-04-04T00:27:45.791Z,100620.86
2019-04-04T00:30:18.560Z,100611.59
2019-04-04T00:32:52.879Z,100603.70
2019-04-04T00:35:25.350Z,100597.05
2019-04-04T00:37:57.883Z,100596.24
2019-04-04T00:40:30.348Z,100590.66
2019-04-04T00:43:07.494Z,100580.89
2019-04-04T00:45:39.997Z,100579.50
2019-04-04T00:48:12.443Z,100569.25
2019-04-04T00:50:46.261Z,100561.55
2019-04-04T00:53:18.700Z,100558.86
2019-04-04T00:55:51.408Z,100560.36
2019-04-04T00:58:23.926Z,100561.61
2019-04-04T01:00:56.832Z,100557.50
2019-04-04T01:03:30.048Z,100559.59
2019-04-04T01:06:04.137Z,100564.34
2019-04-04T01:08:38.869Z,100567.81
2019-04-04T01:11:10.905Z,100576.47
2019-04-04T01:13:43.649Z,100575.66
2019-04-04T01:16:16.293Z,100582.05
2019-04-04T01:18:49.118Z,100581.52
2019-04-04T01:21:22.771Z,100575.07
2019-04-04T01:23:57.931Z,100579.60
2019-04-04T01:26:29.525Z,100577.72
2019-04-04T01:29:02.348Z,100577.16
2019-04-04T01:31:34.910Z,100576.91
2019-04-04T01:34:07.860Z,100575.52
2019-04-04T01:36:40.842Z,100571.09
2019-04-04T01:39:13.259Z,100559.10
2019-04-04T01:41:46.562Z,100552.23
2019-04-04T01:44:18.986Z,100560.70
2019-04-04T01:46:51.497Z,100558.02
2019-04-04T01:49:23.941Z,100559.72
2019-04-04T01:51:57.702Z,100565.64
2019-04-04T01:54:32.150Z,100564.56
2019-04-04T01:57:07.805Z,100570.14
2019-04-04T01:59:39.054Z,100572.13
2019-04-04T02:02:11.599Z,100572.47
2019-04-04T02:04:44.220Z,100575.02
2019-04-04T02:07:16.876Z,100579.69
2019-04-04T02:09:49.554Z,100576.06
2019-04-04T02:12:21.942Z,100572.72
2019-04-04T02:14:54.879Z,100571.88
2019-04-04T02:17:27.670Z,100572.22
2019-04-04T02:20:00.806Z,100574.28
2019-04-04T02:22:33.589Z,100570.20
2019-04-04T02:25:06.208Z,100577.17
2019-04-04T02:27:38.592Z,100574.38
2019-04-04T02:30:14.970Z,100576.33
2019-04-04T02:32:45.808Z,100575.63
2019-04-04T02:35:18.506Z,100585.14
2019-04-04T02:37:54.904Z,100591.02
2019-04-04T02:40:25.214Z,100592.20
2019-04-04T02:42:57.665Z,100595.30
2019-04-04T02:45:30.099Z,100588.92
2019-04-04T02:48:02.453Z,100588.67
2019-04-04T02:50:59.430Z,100594.50
2019-04-04T02:53:32.326Z,100595.06
2019-04-04T02:56:05.408Z,100586.55
2019-04-04T02:58:37.749Z,100588.04
2019-04-04T03:01:10.277Z,100591.07
2019-04-04T03:03:43.086Z,100586.64
2019-04-04T03:06:15.543Z,100586.40
2019-04-04T03:08:48.219Z,100583.12
2019-04-04T03:11:22.178Z,100585.10
2019-04-04T03:13:55.573Z,100576.74
2019-04-04T03:16:28.316Z,100581.02
2019-04-04T03:19:01.124Z,100587.15
2019-04-04T03:21:33.856Z,100589.37
2019-04-04T03:24:07.320Z,100595.17
2019-04-04T03:26:40.053Z,100595.52
2019-04-04T03:29:12.787Z,100587.98
2019-04-04T03:31:45.640Z,100592.17
2019-04-04T03:34:18.144Z,100598.89
2019-04-04T03:36:50.547Z,100606.16
2019-04-04T03:39:23.038Z,100610.09
2019-04-04T03:41:55.608Z,100612.08
2019-04-04T03:44:28.355Z,100611.25
2019-04-04T03:47:01.078Z,100616.60
2019-04-04T03:49:33.605Z,100620.78
2019-04-04T03:52:10.204Z,100618.55
2019-04-04T03:54:40.261Z,100626.36
2019-04-04T03:57:12.703Z,100633.78
2019-04-04T03:59:45.090Z,100643.72
2019-04-04T04:02:18.650Z,100642.80
2019-04-04T04:04:51.218Z,100646.81
2019-04-04T04:07:24.038Z,100644.52
2019-04-04T04:09:59.383Z,100645.23
2019-04-04T04:12:30.615Z,100650.95
2019-04-04T04:15:03.075Z,100655.56
2019-04-04T04:17:36.484Z,100657.92
2019-04-04T04:20:09.558Z,100652.98
2019-04-04T04:22:41.975Z,100648.39
2019-04-04T04:25:14.483Z,100654.36
2019-04-04T04:27:48.485Z,100651.38
2019-04-04T04:30:21.681Z,100658.22
2019-04-04T04:32:57.017Z,100663.04
2019-04-04T04:35:28.682Z,100664.48
2019-04-04T04:38:01.063Z,100666.27
2019-04-04T04:40:33.646Z,100669.09
2019-04-04T04:43:06.066Z,100670.36
2019-04-04T04:45:38.465Z,100670.69
2019-04-04T04:48:10.960Z,100663.61
2019-04-04T04:50:43.361Z,100670.02
2019-04-04T04:53:18.497Z,100657.89
2019-04-04T04:55:50.123Z,100659.39
2019-04-04T04:58:22.561Z,100655.11
2019-04-04T05:00:54.967Z,100656.70
2019-04-04T05:03:27.767Z,100653.39
2019-04-04T05:06:02.651Z,100656.79
2019-04-04T05:08:35.031Z,100652.66
2019-04-04T05:11:07.489Z,100656.73
2019-04-04T05:13:40.121Z,100656.91
2019-04-04T05:16:12.595Z,100653.95
2019-04-04T05:18:47.800Z,100659.34
2019-04-04T05:21:25.483Z,100659.69
2019-04-04T05:23:54.647Z,100661.03
2019-04-04T05:26:27.038Z,100663.31
2019-04-04T05:29:00.063Z,100667.56
2019-04-04T05:31:32.601Z,100662.52
2019-04-04T05:34:05.337Z,100667.30
2019-04-04T05:36:37.735Z,100668.60
2019-04-04T05:39:11.190Z,100668.20
2019-04-04T05:41:43.584Z,100666.24
2019-04-04T05:44:16.207Z,100667.48
2019-04-04T05:46:51.043Z,100670.11
2019-04-04T05:49:23.387Z,100670.69
2019-04-04T05:51:55.867Z,100673.45
2019-04-04T05:54:28.497Z,100674.97
2019-04-04T05:57:03.190Z,100677.41
2019-04-04T05:59:35.115Z,100674.81
2019-04-04T06:02:11.035Z,100686.07
2019-04-04T06:04:41.930Z,100683.25
2019-04-04T06:07:16.338Z,100685.17
2019-04-04T06:09:48.853Z,100684.31
2019-04-04T06:12:22.957Z,100680.06
2019-04-04T06:14:55.614Z,100686.20
2019-04-04T06:17:28.024Z,100688.45
2019-04-04T06:20:00.651Z,100686.07
2019-04-04T06:22:33.430Z,100691.16
2019-04-04T06:25:06.617Z,100691.59
2019-04-04T06:27:40.226Z,100695.77
2019-04-04T06:30:14.335Z,100690.16
2019-04-04T06:32:46.816Z,100690.31
2019-04-04T06:35:19.445Z,100691.93
2019-04-04T06:37:52.090Z,100685.64
2019-04-04T06:40:24.648Z,100694.41
2019-04-04T06:42:57.034Z,100700.81
2019-04-04T06:45:29.860Z,100699.72
2019-04-04T06:48:02.199Z,100701.22
2019-04-04T06:50:34.734Z,100703.95
2019-04-04T06:53:07.715Z,100702.67
2019-04-04T06:55:40.689Z,100703.09
2019-04-04T06:58:13.600Z,100703.20
2019-04-04T07:00:49.794Z,100697.74
2019-04-04T07:03:21.359Z,100703.62
2019-04-04T07:05:53.988Z,100702.78
2019-04-04T07:08:26.835Z,100711.48
2019-04-04T07:11:03.237Z,100708.09
2019-04-04T07:13:42.787Z,100710.20
2019-04-04T07:16:12.524Z,100713.09
2019-04-04T07:18:46.843Z,100709.56
2019-04-04T07:21:22.859Z,100719.82
2019-04-04T07:23:59.030Z,100722.36
2019-04-04T07:26:29.702Z,100720.75
2019-04-04T07:29:02.035Z,100721.16
2019-04-04T07:31:38.038Z,100723.16
2019-04-04T07:34:08.578Z,100728.07
2019-04-04T07:36:41.561Z,100723.50
2019-04-04T07:39:14.973Z,100735.61
2019-04-04T07:41:47.525Z,100725.55
2019-04-04T07:44:22.994Z,100734.52
2019-04-04T07:46:54.124Z,100734.23
2019-04-04T07:49:26.635Z,100743.19
2019-04-04T07:52:00.106Z,100742.77
2019-04-04T07:54:33.630Z,100742.99
2019-04-04T07:57:06.180Z,100735.73
2019-04-04T07:59:38.585Z,100741.36
2019-04-04T08:02:11.828Z,100739.73
2019-04-04T08:04:44.205Z,100745.80
2019-04-04T08:07:16.718Z,100750.45
2019-04-04T08:09:49.449Z,100751.95
2019-04-04T08:12:22.605Z,100747.19
2019-04-04T08:14:55.011Z,100748.53
2019-04-04T08:17:27.624Z,100744.73
2019-04-04T08:20:00.217Z,100743.25
2019-04-04T08:22:33.505Z,100741.02
2019-04-04T08:25:06.015Z,100742.80
2019-04-04T08:27:38.550Z,100741.34
2019-04-04T08:30:11.611Z,100740.22
2019-04-04T08:32:44.317Z,100734.52
2019-04-04T08:35:16.690Z,100731.19
2019-04-04T08:37:49.104Z,100736.14
2019-04-04T08:40:21.537Z,100738.89
2019-04-04T08:42:55.375Z,100735.56
2019-04-04T08:45:27.879Z,100740.77
2019-04-04T08:48:00.286Z,100743.14
2019-04-04T08:50:33.339Z,100739.94
2019-04-04T08:53:06.292Z,100736.55
2019-04-04T08:55:39.186Z,100731.94
2019-04-04T08:58:12.252Z,100738.53
2019-04-04T09:00:45.452Z,100734.94
2019-04-04T09:03:18.109Z,100733.02
2019-04-04T09:05:50.572Z,100735.41
2019-04-04T09:08:23.203Z,100735.03
2019-04-04T09:10:55.987Z,100740.43
2019-04-04T09:13:30.604Z,100739.25
2019-04-04T09:16:03.530Z,100731.38
2019-04-04T09:18:36.159Z,100734.42
2019-04-04T09:21:09.059Z,100734.87
2019-04-04T09:23:41.525Z,100731.55
2019-04-04T09:26:14.388Z,100734.44
2019-04-04T09:28:46.768Z,100734.76
2019-04-04T09:31:19.277Z,100733.27
2019-04-04T09:33:51.705Z,100733.20
2019-04-04T09:36:24.331Z,100729.05
2019-04-04T09:38:56.760Z,100733.17
2019-04-04T09:41:29.126Z,100733.33
2019-04-04T09:44:02.346Z,100723.77
2019-04-04T09:46:34.791Z,100721.58
2019-04-04T09:49:07.344Z,100716.56
2019-04-04T09:51:39.843Z,100709.67
2019-04-04T09:54:12.333Z,100713.80
2019-04-04T09:56:44.746Z,100714.13
2019-04-04T09:59:17.625Z,100709.78
2019-04-04T10:01:50.066Z,100712.53
2019-04-04T10:04:22.693Z,100717.33
2019-04-04T10:06:55.073Z,100717.27
2019-04-04T10:09:27.603Z,100723.86
2019-04-04T10:12:00.281Z,100720.66
2019-04-04T10:14:32.770Z,100720.30
2019-04-04T10:17:05.157Z,100713.84
2019-04-04T10:19:37.668Z,100717.11
2019-04-04T10:22:10.847Z,100716.53
2019-04-04T10:24:43.383Z,100712.08
2019-04-04T10:27:15.945Z,100717.94
2019-04-04T10:29:48.334Z,100720.75
2019-04-04T10:32:20.894Z,100711.41
2019-04-04T10:34:53.375Z,100709.94
2019-04-04T10:37:26.012Z,100710.44
2019-04-04T10:39:58.734Z,100698.95
2019-04-04T10:42:31.318Z,100703.56
2019-04-04T10:45:04.439Z,100703.34
2019-04-04T10:47:37.302Z,100696.20
2019-04-04T10:50:12.720Z,100693.89
2019-04-04T10:52:45.692Z,100688.42
2019-04-04T10:55:18.299Z,100686.56
2019-04-04T10:57:51.174Z,100694.88
2019-04-04T11:00:23.852Z,100686.34
2019-04-04T11:02:56.708Z,100680.66
2019-04-04T11:05:29.615Z,100674.22
2019-04-04T11:08:02.136Z,100673.55
2019-04-04T11:10:34.545Z,100662.80
2019-04-04T11:13:11.055Z,100663.09
2019-04-04T11:15:44.836Z,100662.57
2019-04-04T11:18:22.240Z,100660.71
2019-04-04T11:20:54.680Z,100661.77
2019-04-04T11:23:27.165Z,100655.91
2019-04-04T11:25:59.578Z,100648.94
2019-04-04T11:28:32.083Z,100643.78
2019-04-04T11:31:04.487Z,100643.42
2019-04-04T11:33:37.195Z,100647.41
2019-04-04T11:36:09.672Z,100629.86
2019-04-04T11:38:44.159Z,100635.02
2019-04-04T11:41:16.479Z,100632.40
2019-04-04T11:43:49.335Z,100632.38
2019-04-04T11:46:21.748Z,100622.91
2019-04-04T11:48:54.273Z,100621.47
2019-04-04T11:51:26.629Z,100623.52
2019-04-04T11:53:59.126Z,100619.95
2019-04-04T11:56:32.028Z,100619.56
2019-04-04T11:59:04.447Z,100617.81
2019-04-04T12:01:39.105Z,100625.12
2019-04-04T12:04:11.672Z,100625.47
2019-04-04T12:06:44.057Z,100642.09
2019-04-04T12:09:16.675Z,100649.00
2019-04-04T12:11:49.105Z,100661.05
2019-04-04T12:14:21.664Z,100659.41
2019-04-04T12:16:54.024Z,100661.53
2019-04-04T12:19:26.477Z,100652.79
2019-04-04T12:21:58.874Z,100650.27
2019-04-04T12:24:31.399Z,100654.63
2019-04-04T12:27:03.835Z,100651.59
2019-04-04T12:29:36.298Z,100659.06
2019-04-04T12:32:08.793Z,100655.97
2019-04-04T12:34:41.782Z,100650.81
2019-04-04T12:37:14.152Z,100647.06
2019-04-04T12:39:47.202Z,100647.77
2019-04-04T12:42:20.130Z,100641.33
2019-04-04T12:44:53.329Z,100638.97
2019-04-04T12:47:25.778Z,100636.77
2019-04-04T12:49:58.197Z,100634.19
2019-04-04T12:52:31.159Z,100625.30
2019-04-04T12:55:03.522Z,100611.33
2019-04-04T12:57:36.451Z,100605.73
2019-04-04T13:00:11.258Z,100611.98
2019-04-04T13:02:43.913Z,100622.09
2019-04-04T13:05:16.682Z,100632.17
2019-04-04T13:07:49.414Z,100641.92
2019-04-04T13:10:32.543Z,100639.25
2019-04-04T13:12:56.496Z,100646.64
2019-04-04T13:15:28.930Z,100654.09
2019-04-04T13:18:01.484Z,100649.48
2019-04-04T13:20:34.711Z,100659.95
2019-04-04T13:23:08.659Z,100666.58
2019-04-04T13:25:41.340Z,100664.22
2019-04-04T13:28:13.900Z,100664.56
2019-04-04T13:30:46.407Z,100648.92
2019-04-04T13:33:19.424Z,100630.47
2019-04-04T13:35:53.108Z,100618.92
2019-04-04T13:38:25.628Z,100617.80
2019-04-04T13:40:58.042Z,100611.64
2019-04-04T13:43:30.662Z,100622.09
2019-04-04T13:46:03.070Z,100638.23
2019-04-04T13:48:35.916Z,100637.58
2019-04-04T13:51:08.706Z,100641.89
2019-04-04T13:53:41.552Z,100646.38
2019-04-04T13:56:14.396Z,100650.47
2019-04-04T13:58:47.554Z,100649.41
2019-04-04T14:01:20.181Z,100665.78
2019-04-04T14:03:52.720Z,100661.00
2019-04-04T14:06:25.425Z,100658.42
2019-04-04T14:08:57.957Z,100652.81
2019-04-04T14:11:30.386Z,100639.86
2019-04-04T14:14:02.993Z,100640.20
2019-04-04T14:16:35.659Z,100632.52
2019-04-04T14:19:08.295Z,100638.04
2019-04-04T14:21:40.714Z,100637.71
2019-04-04T14:24:14.356Z,100629.63
2019-04-04T14:26:47.219Z,100628.37
2019-04-04T14:29:27.350Z,100634.58
2019-04-04T14:31:54.333Z,100637.02
2019-04-04T14:34:27.386Z,100639.82
2019-04-04T14:37:00.282Z,100641.80
2019-04-04T14:39:32.710Z,100631.98
2019-04-04T14:42:05.596Z,100628.73
2019-04-04T14:44:38.070Z,100631.98
2019-04-04T14:47:11.256Z,100631.98
2019-04-04T14:49:45.909Z,100633.52
2019-04-04T14:52:19.936Z,100624.31
2019-04-04T14:54:52.474Z,100638.73
2019-04-04T14:57:27.489Z,100639.25
2019-04-04T14:59:59.869Z,100639.02
2019-04-04T15:02:32.505Z,100641.75
2019-04-04T15:05:04.993Z,100644.65
2019-04-04T15:07:37.581Z,100643.04
2019-04-04T15:10:10.090Z,100641.30
2019-04-04T15:12:42.740Z,100633.95
2019-04-04T15:15:15.673Z,100631.98
2019-04-04T15:17:50.527Z,100633.51
2019-04-04T15:20:22.954Z,100628.37
2019-04-04T15:22:55.468Z,100628.97
2019-04-04T15:25:27.862Z,100637.23
2019-04-04T15:28:00.245Z,100641.80
2019-04-04T15:30:33.185Z,100646.93
2019-04-04T15:33:05.596Z,100642.48
2019-04-04T15:35:38.444Z,100643.09
2019-04-04T15:38:10.849Z,100636.31
2019-04-04T15:40:43.345Z,100640.77
2019-04-04T15:43:15.707Z,100636.22
2019-04-04T15:45:48.156Z,100649.64
2019-04-04T15:48:20.666Z,100652.89
2019-04-04T15:50:53.047Z,100657.34
2019-04-04T15:53:25.563Z,100656.95
2019-04-04T15:55:58.036Z,100655.44
2019-04-04T15:58:30.423Z,100658.33
2019-04-04T16:01:02.921Z,100654.25
2019-04-04T16:03:35.427Z,100653.78
2019-04-04T16:06:07.950Z,100654.73
2019-04-04T16:08:40.314Z,100657.63
2019-04-04T16:11:12.726Z,100662.98
2019-04-04T16:13:49.028Z,100657.98
2019-04-04T16:16:22.361Z,100656.35
2019-04-04T16:18:54.931Z,100660.31
2019-04-04T16:21:27.780Z,100661.47
2019-04-04T16:24:00.392Z,100661.47
2019-04-04T16:26:33.117Z,100658.11
2019-04-04T16:29:05.455Z,100654.48
2019-04-04T16:31:37.985Z,100653.91
2019-04-04T16:34:10.416Z,100652.84
2019-04-04T16:36:43.529Z,100651.00
2019-04-04T16:39:16.500Z,100648.76
2019-04-04T16:42:01.282Z,100650.52
2019-04-04T16:44:23.901Z,100664.63
2019-04-04T16:46:56.332Z,100652.48
2019-04-04T16:49:29.047Z,100657.37
2019-04-04T16:52:01.587Z,100663.32
2019-04-04T16:54:34.013Z,100673.80
2019-04-04T16:57:06.867Z,100675.80
2019-04-04T16:59:39.248Z,100668.32
2019-04-04T17:02:11.863Z,100670.08
2019-04-04T17:04:44.282Z,100669.00
2019-04-04T17:07:17.167Z,100675.52
2019-04-04T17:09:49.741Z,100675.52
2019-04-04T17:12:22.885Z,100682.88
2019-04-04T17:14:57.668Z,100687.42
2019-04-04T17:17:33.031Z,100683.79
2019-04-04T17:20:07.312Z,100684.15
2019-04-04T17:22:39.797Z,100695.09
2019-04-04T17:25:13.842Z,100697.41
2019-04-04T17:27:47.769Z,100701.37
2019-04-04T17:30:20.863Z,100700.81
2019-04-04T17:32:53.371Z,100702.20
2019-04-04T17:35:26.795Z,100705.33
2019-04-04T17:37:59.696Z,100707.56
2019-04-04T17:40:32.581Z,100708.96
2019-04-04T17:43:06.006Z,100712.32
2019-04-04T17:45:39.102Z,100714.91
2019-04-04T17:48:11.846Z,100714.67
2019-04-04T17:50:44.886Z,100713.83
2019-04-04T17:53:17.998Z,100718.27
2019-04-04T17:56:28.270Z,100726.09
2019-04-04T17:59:35.670Z,100728.89
2019-04-04T18:02:08.698Z,100738.75
2019-04-04T18:04:48.244Z,100740.50
2019-04-04T18:07:15.488Z,100742.95
2019-04-04T18:09:48.163Z,100749.34
2019-04-04T18:12:21.067Z,100752.98
2019-04-04T18:17:49.739Z,100760.77
2019-04-04T18:20:22.802Z,100768.13
2019-04-04T18:22:55.501Z,100775.70
2019-04-04T18:28:18.857Z,100776.94
2019-04-04T18:30:51.799Z,100777.70
2019-04-04T18:35:59.149Z,100783.29
2019-04-04T18:38:32.366Z,100793.91
2019-04-04T18:41:08.929Z,100790.88
2019-04-04T18:43:41.929Z,100801.17
2019-04-04T18:46:14.358Z,100797.78
2019-04-04T18:49:04.041Z,100800.02
2019-04-04T18:51:54.132Z,100801.42
2019-04-04T18:54:43.825Z,100798.38
2019-04-04T19:00:07.691Z,100807.06
2019-04-04T19:02:40.163Z,100811.36
2019-04-04T19:05:13.028Z,100811.72
2019-04-04T19:07:45.393Z,100806.44
2019-04-04T19:10:18.497Z,100809.23
2019-04-04T19:12:50.877Z,100813.22
2019-04-04T19:15:24.873Z,100816.58
2019-04-04T19:17:57.297Z,100812.14
2019-04-04T19:20:30.017Z,100817.25
2019-04-04T19:23:03.283Z,100813.05
2019-04-04T19:25:35.907Z,100814.80
2019-04-04T19:28:09.127Z,100814.31
2019-04-04T19:30:41.633Z,100817.81
2019-04-04T19:33:14.350Z,100821.17
2019-04-04T19:35:53.026Z,100817.33
2019-04-04T19:38:25.557Z,100816.84
2019-04-04T19:40:58.387Z,100815.20
2019-04-04T19:43:31.283Z,100821.38
2019-04-04T19:46:04.444Z,100819.15
2019-04-04T19:48:37.066Z,100822.19
2019-04-04T19:51:09.863Z,100830.58
2019-04-04T19:53:42.786Z,100827.22
2019-04-04T19:56:15.922Z,100828.27
2019-04-04T19:58:49.481Z,100825.47
2019-04-04T20:01:22.459Z,100829.00
2019-04-04T20:03:55.361Z,100830.84
2019-04-04T20:06:28.182Z,100835.39
2019-04-04T20:09:01.387Z,100837.59
2019-04-04T20:11:34.615Z,100844.83
2019-04-04T20:14:08.803Z,100848.70
2019-04-04T20:16:41.823Z,100841.71
2019-04-04T20:19:15.591Z,100845.31
2019-04-04T20:21:48.072Z,100841.13
2019-04-04T20:24:20.863Z,100842.52
2019-04-04T20:26:53.854Z,100843.91
2019-04-04T20:29:26.848Z,100842.52
2019-04-04T20:31:59.518Z,100834.72
2019-04-04T20:34:32.148Z,100832.59
2019-04-04T20:37:04.639Z,100827.11
2019-04-04T20:39:37.289Z,100821.62
2019-04-04T20:42:09.797Z,100825.09
2019-04-04T20:44:42.491Z,100823.45
2019-04-04T20:47:14.939Z,100822.41
2019-04-04T20:49:48.201Z,100821.56
2019-04-04T20:52:20.884Z,100826.91
2019-04-04T20:54:53.577Z,100829.81
2019-04-04T20:57:26.385Z,100835.16
2019-04-04T20:59:58.981Z,100825.72
2019-04-04T21:02:32.240Z,100821.29
2019-04-04T21:05:04.959Z,100827.13
2019-04-04T21:07:37.424Z,100827.44
2019-04-04T21:10:10.569Z,100828.84
2019-04-04T21:12:43.118Z,100833.63
2019-04-04T21:15:16.340Z,100833.37
2019-04-04T21:17:50.039Z,100831.17
2019-04-04T21:20:22.572Z,100834.28
2019-04-04T21:22:57.335Z,100833.73
2019-04-04T21:25:30.198Z,100838.83
2019-04-04T21:28:03.284Z,100841.13
2019-04-04T21:30:35.823Z,100843.37
2019-04-04T21:33:08.373Z,100842.19
2019-04-04T21:38:19.707Z,100844.66
2019-04-04T21:40:52.150Z,100843.75
2019-04-04T21:43:24.600Z,100849.23
2019-04-04T21:45:57.123Z,100848.08
2019-04-04T21:48:29.813Z,100844.94
2019-04-04T21:51:02.447Z,100849.63
2019-04-04T21:53:34.941Z,100852.31
2019-04-04T21:56:07.921Z,100857.23
2019-04-04T21:58:40.658Z,100862.38
2019-04-04T22:01:13.526Z,100858.91
2019-04-04T22:03:46.299Z,100866.63
2019-04-04T22:06:19.167Z,100870.48
2019-04-04T22:08:52.053Z,100866.17
2019-04-04T22:11:25.150Z,100872.02
2019-04-04T22:13:57.919Z,100872.02
2019-04-04T22:16:30.364Z,100869.81
2019-04-04T22:19:02.733Z,100870.96
2019-04-04T22:21:35.487Z,100878.76
2019-04-04T22:24:08.328Z,100877.15
2019-04-04T22:26:40.847Z,100877.95
2019-04-04T22:29:13.242Z,100875.16
2019-04-04T22:31:46.495Z,100872.71
2019-04-04T22:34:19.071Z,100871.88
2019-04-04T22:36:51.551Z,100869.42
2019-04-04T22:39:23.876Z,100868.59
2019-04-04T22:41:56.755Z,100866.14
2019-04-04T22:47:02.457Z,100857.02
2019-04-04T22:49:34.896Z,100856.22
2019-04-04T22:52:07.589Z,100856.22
2019-04-04T22:54:40.004Z,100853.42
2019-04-04T22:57:12.487Z,100843.40
2019-04-04T22:59:45.378Z,100844.80
2019-04-04T23:02:18.618Z,100849.23
2019-04-04T23:04:51.509Z,100846.78
2019-04-04T23:07:23.994Z,100843.75
2019-04-04T23:09:56.787Z,100844.91
2019-04-04T23:12:29.311Z,100845.22
2019-04-04T23:15:03.898Z,100844.77
2019-04-04T23:17:38.189Z,100844.03
2019-04-04T23:20:11.624Z,100849.97
2019-04-04T23:22:52.548Z,100848.33
2019-04-04T23:25:18.354Z,100846.69
2019-04-04T23:27:50.828Z,100848.08
2019-04-04T23:30:23.151Z,100850.98
2019-04-04T23:32:55.751Z,100846.80
2019-04-04T23:35:28.385Z,100842.25
2019-04-04T23:38:00.815Z,100845.61
2019-04-04T23:40:33.197Z,100837.01
2019-04-04T23:43:05.672Z,100831.73
2019-04-04T23:45:38.154Z,100826.50
2019-04-04T23:48:11.052Z,100827.65
2019-04-04T23:50:43.442Z,100831.11
2019-04-04T23:53:15.925Z,100829.01
2019-04-04T23:55:48.611Z,100827.13
2019-04-04T23:58:21.570Z,100823.59
